Soul City, North Carolina
Current Conditions -  °F | °C
As of 3:35 PM on Wednesday 26 Nov 2014 (Local Time) from KHNZ Reporting Station
Haze Haze  
Wind Chill: 33°   Ceiling: 900
Heat Index: 39°   Visibility: 4mi
Dew Point: 37°   Wind: 9mph
Humidity: 91%   Direction: 320°NW
Pressure: 29.97"   Gusts: NA
Location:  36.4679°N, 78.2938°W
Report Text: KHNZ 262035Z AUTO 32008KT 4SM BR OVC009 04/03 A2997 RMK AO2 P0001 T00400026
Loading
Personal Weather Stations






























Interactive Weather Map New forecast layout! Learn more

10-Day Weather Forecast

Advertisements
Track Severe Weather on mobile